Time;durP1;ratioP1;P1;durP2;ratioP2;P2;SDS_P1;SDS_P2;PMS_P1;PMS_P2;Temp;Humidity;BMP_temperature;BMP_pressure;BME280_temperature;BME280_humidity;BME280_pressure;Samples;Min_cycle;Max_cycle;Signal;HPM_P1;HPM_P2
2022/03/12 00:00:54;;;;;;;9.60;8.87;;;9.90;38.70;;;;;;5123634;27;20188;-65
2022/03/12 00:03:20;;;;;;;9.87;8.97;;;9.90;39.20;;;;;;5112265;28;20285;-65
2022/03/12 00:05:59;;;;;;;9.77;8.87;;;9.90;38.60;;;;;;5125491;27;20208;-66
2022/03/12 00:08:29;;;;;;;9.83;8.70;;;9.90;39.10;;;;;;5134088;27;20207;-65
2022/03/12 00:10:55;;;;;;;9.40;8.63;;;9.90;39.80;;;;;;5132380;27;20204;-66
2022/03/12 00:13:21;;;;;;;9.80;9.00;;;9.90;39.00;;;;;;5135369;27;20169;-65
2022/03/12 00:15:50;;;;;;;11.03;9.10;;;9.90;39.90;;;;;;5133222;27;20204;-66
2022/03/12 00:18:20;;;;;;;9.50;8.47;;;9.80;39.50;;;;;;5135118;27;20202;-65
2022/03/12 00:20:50;;;;;;;8.90;8.10;;;9.80;39.30;;;;;;5126002;27;20185;-65
2022/03/12 00:23:18;;;;;;;10.87;9.80;;;9.80;40.00;;;;;;5114371;28;20169;-65
2022/03/12 00:25:47;;;;;;;10.67;9.67;;;9.80;40.00;;;;;;5115253;27;20208;-65
2022/03/12 00:28:12;;;;;;;10.63;9.53;;;9.80;39.50;;;;;;5114262;28;20169;-66
2022/03/12 00:30:39;;;;;;;12.77;9.67;;;9.80;39.30;;;;;;5120826;27;20315;-66
2022/03/12 00:33:05;;;;;;;10.20;9.20;;;9.80;39.00;;;;;;5134648;27;20576;-66
2022/03/12 00:35:31;;;;;;;9.47;8.50;;;9.80;39.40;;;;;;5132757;27;20276;-66
2022/03/12 00:37:57;;;;;;;9.30;8.50;;;9.80;39.60;;;;;;5134970;27;20209;-66
2022/03/12 00:40:23;;;;;;;10.13;8.80;;;9.80;39.90;;;;;;5131606;27;20180;-66
2022/03/12 00:42:49;;;;;;;9.43;8.57;;;9.80;40.00;;;;;;5113110;28;20261;-66
2022/03/12 00:45:15;;;;;;;10.20;9.30;;;9.80;39.80;;;;;;5114571;27;20208;-66
2022/03/12 00:47:41;;;;;;;9.10;8.40;;;9.80;39.30;;;;;;5114393;27;20442;-66
2022/03/12 00:50:08;;;;;;;10.03;9.20;;;9.80;39.70;;;;;;5113886;28;20400;-66
2022/03/12 00:52:33;;;;;;;9.73;8.80;;;9.80;39.60;;;;;;5133351;27;20263;-65
2022/03/12 00:54:59;;;;;;;9.37;8.57;;;9.80;39.70;;;;;;5133082;27;20719;-66
2022/03/12 00:57:25;;;;;;;8.90;8.00;;;9.80;40.00;;;;;;5116916;27;20713;-66
2022/03/12 00:59:51;;;;;;;9.63;8.73;;;9.80;40.20;;;;;;5114021;28;20263;-65
2022/03/12 01:02:18;;;;;;;9.37;8.53;;;9.80;40.20;;;;;;5129827;27;20624;-66
2022/03/12 01:04:44;;;;;;;9.93;9.00;;;9.70;40.00;;;;;;5134026;27;20613;-66
2022/03/12 01:07:13;;;;;;;9.30;8.50;;;9.70;40.20;;;;;;5131212;27;20219;-66
2022/03/12 01:09:39;;;;;;;10.40;8.53;;;9.70;39.70;;;;;;5133689;27;20256;-66
2022/03/12 01:12:06;;;;;;;9.77;8.77;;;9.70;40.30;;;;;;5120685;27;20172;-66
2022/03/12 01:14:32;;;;;;;9.07;8.30;;;9.70;40.20;;;;;;5113446;28;20260;-66
2022/03/12 01:16:58;;;;;;;9.20;8.40;;;9.70;40.20;;;;;;5114680;27;20602;-66
2022/03/12 01:19:24;;;;;;;9.87;9.07;;;9.70;40.50;;;;;;5112224;28;20635;-66
2022/03/12 01:21:50;;;;;;;9.50;8.70;;;9.60;40.90;;;;;;5120816;27;20198;-66
2022/03/12 01:24:16;;;;;;;9.00;8.20;;;9.60;40.90;;;;;;5132956;27;20724;-66
2022/03/12 01:26:42;;;;;;;11.87;9.43;;;9.60;41.20;;;;;;5113596;27;20287;-66
2022/03/12 01:29:08;;;;;;;9.90;9.00;;;9.60;41.40;;;;;;5111879;28;20644;-66
2022/03/12 01:31:36;;;;;;;11.20;9.27;;;9.60;41.20;;;;;;5130531;27;20207;-66
2022/03/12 01:34:03;;;;;;;9.60;8.80;;;9.60;41.50;;;;;;5133262;27;20457;-66
2022/03/12 01:36:30;;;;;;;9.57;8.57;;;9.60;41.50;;;;;;5117078;27;20204;-66
2022/03/12 01:38:57;;;;;;;10.67;9.10;;;9.60;41.80;;;;;;5112127;27;20168;-66
2022/03/12 01:41:29;;;;;;;10.20;8.73;;;9.50;41.70;;;;;;5125090;27;20180;-66
2022/03/12 01:43:57;;;;;;;11.27;8.97;;;9.50;41.90;;;;;;5132798;27;20173;-66
2022/03/12 01:46:34;;;;;;;10.00;9.10;;;9.50;42.00;;;;;;5121285;27;20215;-66
2022/03/12 01:49:03;;;;;;;10.33;9.33;;;9.50;42.40;;;;;;5132217;27;20175;-66
2022/03/12 01:51:29;;;;;;;9.90;8.90;;;9.50;42.40;;;;;;5132159;27;20179;-65
2022/03/12 01:53:56;;;;;;;10.83;9.73;;;9.40;42.50;;;;;;5132656;27;20183;-66
2022/03/12 01:56:28;;;;;;;10.97;9.03;;;9.40;42.50;;;;;;5132779;27;20244;-66
2022/03/12 01:58:55;;;;;;;10.50;9.50;;;9.50;42.90;;;;;;5129733;27;20669;-65
2022/03/12 02:01:21;;;;;;;12.27;9.77;;;9.50;43.40;;;;;;5132883;27;20180;-66
2022/03/12 02:03:48;;;;;;;11.10;10.10;;;9.40;42.80;;;;;;5122450;27;20211;-65
2022/03/12 02:06:21;;;;;;;11.50;9.73;;;9.40;42.70;;;;;;5111875;28;20211;-66
2022/03/12 02:08:57;;;;;;;10.60;9.70;;;9.50;43.20;;;;;;5113704;27;20177;-66
2022/03/12 02:11:30;;;;;;;10.97;9.87;;;9.50;43.40;;;;;;5111239;28;20203;-66
2022/03/12 02:14:11;;;;;;;10.17;9.17;;;9.50;43.30;;;;;;5122854;27;20267;-65
2022/03/12 02:16:42;;;;;;;10.57;9.47;;;9.50;43.20;;;;;;5131645;27;20195;-65
2022/03/12 02:19:08;;;;;;;10.43;9.33;;;9.50;43.50;;;;;;5131179;27;20249;-65
2022/03/12 02:21:41;;;;;;;11.67;9.80;;;9.50;43.40;;;;;;5132366;27;20631;-65
2022/03/12 02:24:08;;;;;;;10.53;9.43;;;9.50;43.50;;;;;;5121523;27;20183;-65
2022/03/12 02:26:33;;;;;;;9.73;8.83;;;9.50;43.80;;;;;;5111957;28;20272;-66
2022/03/12 02:28:59;;;;;;;10.10;9.37;;;9.40;43.50;;;;;;5113448;27;20169;-65
2022/03/12 02:31:29;;;;;;;11.23;9.70;;;9.40;43.90;;;;;;5112094;28;20164;-65
2022/03/12 02:34:01;;;;;;;11.17;9.50;;;9.40;43.60;;;;;;5119431;27;20174;-65
2022/03/12 02:36:28;;;;;;;11.27;10.27;;;9.50;43.90;;;;;;5131748;27;20204;-65
2022/03/12 02:38:54;;;;;;;10.70;9.83;;;9.40;45.00;;;;;;5130824;27;20180;-66
2022/03/12 02:41:22;;;;;;;10.77;9.60;;;9.40;45.00;;;;;;5132229;27;20172;-65
2022/03/12 02:43:48;;;;;;;10.20;9.23;;;9.40;45.70;;;;;;5126059;27;20185;-65
2022/03/12 02:46:14;;;;;;;10.43;9.30;;;9.40;45.30;;;;;;5112350;27;20204;-65
2022/03/12 02:48:43;;;;;;;10.23;9.13;;;9.40;44.80;;;;;;5113148;27;20192;-65
2022/03/12 02:51:09;;;;;;;10.97;8.97;;;9.40;47.30;;;;;;5111599;28;20165;-66
2022/03/12 02:53:35;;;;;;;10.97;9.50;;;9.30;49.60;;;;;;5114128;28;20184;-66
2022/03/12 02:56:00;;;;;;;13.10;9.27;;;9.10;53.30;;;;;;5111550;28;20220;-65
2022/03/12 02:58:27;;;;;;;10.27;9.37;;;8.80;57.60;;;;;;5112488;27;20653;-65
2022/03/12 03:00:53;;;;;;;12.40;10.17;;;8.60;60.80;;;;;;5111704;27;20618;-65
2022/03/12 03:03:19;;;;;;;11.07;9.97;;;8.30;63.00;;;;;;5111492;28;20173;-66
2022/03/12 03:05:47;;;;;;;11.73;10.50;;;8.10;66.30;;;;;;5109967;28;20212;-65
2022/03/12 03:08:18;;;;;;;10.87;9.97;;;8.00;66.50;;;;;;5111578;28;20161;-64
2022/03/12 03:10:45;;;;;;;12.13;11.03;;;7.90;65.40;;;;;;5112786;28;20234;-65
2022/03/12 03:13:18;;;;;;;12.17;9.97;;;7.80;67.50;;;;;;5111254;28;20168;-65
2022/03/12 03:15:49;;;;;;;10.57;9.47;;;7.80;65.60;;;;;;5129281;28;20203;-65
2022/03/12 03:18:16;;;;;;;11.03;9.93;;;7.80;60.70;;;;;;5130482;27;20171;-65
2022/03/12 03:20:45;;;;;;;15.37;9.47;;;7.90;60.90;;;;;;5130114;27;20591;-64
2022/03/12 03:23:12;;;;;;;10.03;9.13;;;8.10;59.60;;;;;;5129600;27;20167;-64
2022/03/12 03:25:39;;;;;;;10.73;9.07;;;8.20;59.60;;;;;;5109281;28;20212;-66
2022/03/12 03:28:05;;;;;;;10.60;9.57;;;8.30;57.20;;;;;;5111719;28;20256;-65
2022/03/12 03:30:34;;;;;;;10.47;9.43;;;8.40;57.40;;;;;;5131673;27;20184;-65
2022/03/12 03:33:01;;;;;;;10.67;9.40;;;8.50;57.40;;;;;;5135373;27;20173;-65
2022/03/12 03:35:27;;;;;;;10.77;9.87;;;8.50;54.60;;;;;;5134050;27;20850;-65
2022/03/12 03:37:52;;;;;;;11.03;9.47;;;8.60;54.20;;;;;;5136209;27;20184;-64
2022/03/12 03:40:18;;;;;;;10.30;9.23;;;8.60;53.00;;;;;;5117119;27;20212;-65
2022/03/12 03:42:43;;;;;;;10.57;9.50;;;8.70;52.00;;;;;;5115510;28;20177;-65
2022/03/12 03:45:09;;;;;;;10.63;9.60;;;8.70;51.70;;;;;;5115588;27;20269;-65
2022/03/12 03:47:35;;;;;;;13.47;10.17;;;8.70;50.90;;;;;;5113878;28;20181;-65
2022/03/12 03:50:00;;;;;;;10.53;9.63;;;8.70;51.70;;;;;;5129719;27;20675;-65
2022/03/12 03:52:26;;;;;;;10.80;9.70;;;8.70;51.40;;;;;;5135886;27;20232;-64
2022/03/12 03:54:52;;;;;;;10.00;9.10;;;8.70;50.50;;;;;;5134044;27;20176;-65
2022/03/12 03:57:19;;;;;;;9.40;8.57;;;8.70;50.40;;;;;;5134879;27;20200;-64
2022/03/12 03:59:44;;;;;;;10.43;9.23;;;8.70;50.50;;;;;;5124108;27;20172;-65
2022/03/12 04:02:10;;;;;;;15.03;10.20;;;8.70;50.00;;;;;;5113584;28;20276;-65
2022/03/12 04:04:38;;;;;;;10.77;9.60;;;8.70;50.60;;;;;;5114407;27;20277;-65
2022/03/12 04:07:05;;;;;;;10.30;9.30;;;8.70;50.20;;;;;;5114832;28;20271;-65
2022/03/12 04:09:31;;;;;;;10.00;9.10;;;8.70;50.70;;;;;;5122536;27;20180;-65
2022/03/12 04:11:57;;;;;;;10.80;9.87;;;8.70;50.20;;;;;;5135348;27;20168;-65
2022/03/12 04:14:25;;;;;;;11.23;9.57;;;8.70;49.40;;;;;;5133367;27;20176;-65
2022/03/12 04:16:51;;;;;;;11.13;9.37;;;8.70;49.80;;;;;;5132958;27;20192;-65
2022/03/12 04:19:18;;;;;;;10.80;9.70;;;8.60;49.20;;;;;;5128467;27;20222;-65
2022/03/12 04:21:45;;;;;;;10.37;9.30;;;8.70;50.10;;;;;;5114597;28;20177;-65
2022/03/12 04:24:11;;;;;;;11.23;10.20;;;8.70;49.80;;;;;;5114772;27;20176;-65
2022/03/12 04:26:37;;;;;;;11.23;10.10;;;8.70;50.10;;;;;;5113714;28;20201;-65
2022/03/12 04:29:08;;;;;;;11.10;9.80;;;8.60;50.20;;;;;;5116431;27;20165;-65
2022/03/12 04:31:34;;;;;;;12.27;9.63;;;8.60;50.40;;;;;;5134098;27;20572;-65
2022/03/12 04:34:00;;;;;;;10.03;8.97;;;8.70;50.50;;;;;;5131901;27;20176;-65
2022/03/12 04:36:26;;;;;;;10.67;9.57;;;8.60;50.50;;;;;;5132739;27;20552;-65
2022/03/12 04:38:52;;;;;;;11.23;10.23;;;8.60;50.70;;;;;;5134977;27;20192;-65
2022/03/12 04:41:19;;;;;;;11.43;10.13;;;8.60;51.00;;;;;;5128963;27;20235;-65
2022/03/12 04:43:47;;;;;;;16.77;10.57;;;8.60;51.00;;;;;;5113683;28;20655;-65
2022/03/12 04:46:13;;;;;;;12.83;11.40;;;8.60;51.10;;;;;;5130948;27;20294;-65
2022/03/12 04:48:39;;;;;;;11.47;10.37;;;8.60;51.40;;;;;;5134193;27;20298;-65
2022/03/12 04:51:04;;;;;;;13.07;9.60;;;8.50;51.40;;;;;;5134023;27;20654;-65
2022/03/12 04:53:30;;;;;;;12.30;10.50;;;8.50;51.30;;;;;;5134627;27;20175;-65
2022/03/12 04:55:56;;;;;;;10.63;9.63;;;8.50;52.00;;;;;;5132553;27;20207;-65
2022/03/12 04:58:22;;;;;;;11.73;10.63;;;8.50;52.00;;;;;;5132997;27;20179;-65
2022/03/12 05:00:48;;;;;;;11.60;10.57;;;8.50;52.50;;;;;;5119680;27;20420;-65
2022/03/12 05:03:22;;;;;;;11.20;10.20;;;8.50;52.70;;;;;;5113567;28;20180;-65
2022/03/12 05:05:50;;;;;;;14.53;10.77;;;8.40;52.70;;;;;;5114582;27;20208;-65
2022/03/12 05:08:36;;;;;;;12.20;11.00;;;8.40;52.90;;;;;;5112050;28;20188;-65
2022/03/12 05:11:02;;;;;;;12.27;11.13;;;8.30;53.50;;;;;;5127763;27;20168;-65
2022/03/12 05:13:27;;;;;;;13.23;11.83;;;8.30;53.80;;;;;;5133918;27;20179;-65
2022/03/12 05:16:03;;;;;;;12.40;11.10;;;8.20;53.70;;;;;;5131869;27;20204;-65
2022/03/12 05:18:30;;;;;;;12.93;11.77;;;8.10;53.50;;;;;;5134556;27;20240;-64
2022/03/12 05:20:55;;;;;;;12.43;11.50;;;8.10;54.20;;;;;;5121539;27;20177;-65
2022/03/12 05:23:22;;;;;;;13.27;11.97;;;8.00;54.10;;;;;;5118823;27;20241;-65
2022/03/12 05:25:49;;;;;;;12.90;11.60;;;8.00;54.80;;;;;;5133395;27;20203;-65
2022/03/12 05:28:29;;;;;;;11.67;10.67;;;8.00;54.90;;;;;;5132017;27;20538;-65
2022/03/12 05:30:57;;;;;;;11.77;10.67;;;7.90;54.70;;;;;;5133960;27;20164;-66
2022/03/12 05:33:23;;;;;;;11.07;9.97;;;7.90;54.90;;;;;;5128324;27;20187;-65
2022/03/12 05:35:53;;;;;;;11.37;10.37;;;7.80;55.50;;;;;;5111835;28;20205;-65
2022/03/12 05:38:19;;;;;;;11.87;10.70;;;7.80;56.10;;;;;;5114296;27;20180;-64
2022/03/12 05:40:48;;;;;;;11.90;10.70;;;7.70;55.70;;;;;;5113517;28;20180;-65
2022/03/12 05:43:15;;;;;;;11.07;10.07;;;7.60;55.70;;;;;;5130000;27;20654;-65
2022/03/12 05:45:48;;;;;;;10.90;9.87;;;7.60;56.70;;;;;;5133194;27;20747;-66
2022/03/12 05:48:16;;;;;;;12.37;11.10;;;7.50;56.50;;;;;;5118319;27;20173;-63
2022/03/12 05:50:43;;;;;;;12.07;10.90;;;7.50;56.90;;;;;;5113209;28;20177;-65
2022/03/12 05:53:09;;;;;;;11.53;10.33;;;7.40;57.00;;;;;;5114305;27;20254;-65
2022/03/12 05:55:39;;;;;;;11.50;10.50;;;7.40;57.10;;;;;;5111658;28;20193;-65
2022/03/12 05:58:11;;;;;;;13.17;11.87;;;7.50;57.30;;;;;;5125764;27;20586;-66
2022/03/12 06:00:39;;;;;;;14.60;11.00;;;7.40;57.30;;;;;;5130446;27;20535;-65
2022/03/12 06:03:05;;;;;;;11.43;10.27;;;7.40;57.60;;;;;;5123545;27;20241;-65
2022/03/12 06:05:31;;;;;;;12.23;11.07;;;7.40;57.60;;;;;;5124413;27;20606;-65
2022/03/12 06:07:59;;;;;;;11.63;10.67;;;7.40;58.30;;;;;;5111356;28;20212;-65
2022/03/12 06:10:28;;;;;;;13.23;11.93;;;7.30;58.20;;;;;;5121881;27;20176;-65
2022/03/12 06:12:56;;;;;;;12.03;11.03;;;7.30;58.50;;;;;;5132541;27;20176;-65
2022/03/12 06:15:23;;;;;;;12.77;11.27;;;7.30;58.60;;;;;;5130861;27;20199;-64
2022/03/12 06:17:49;;;;;;;12.80;11.67;;;7.30;59.30;;;;;;5133214;27;20623;-65
2022/03/12 06:20:17;;;;;;;15.07;11.57;;;7.40;59.60;;;;;;5125112;27;20176;-64
2022/03/12 06:22:44;;;;;;;11.13;10.20;;;7.40;59.60;;;;;;5112312;28;20269;-65
2022/03/12 06:25:12;;;;;;;12.37;11.47;;;7.40;59.90;;;;;;5112874;27;20284;-65
2022/03/12 06:27:39;;;;;;;12.97;11.87;;;7.40;59.90;;;;;;5112009;28;20177;-64
2022/03/12 06:30:08;;;;;;;12.83;11.63;;;7.40;60.50;;;;;;5117049;27;20539;-64
2022/03/12 06:32:38;;;;;;;13.50;12.30;;;7.50;61.20;;;;;;5132753;27;20183;-65
2022/03/12 06:35:05;;;;;;;13.37;12.03;;;7.50;61.10;;;;;;5130320;27;20239;-65
2022/03/12 06:37:31;;;;;;;12.00;10.90;;;7.60;61.20;;;;;;5132681;27;20298;-65
2022/03/12 06:39:56;;;;;;;15.93;11.60;;;7.70;61.50;;;;;;5115900;27;20279;-64
2022/03/12 06:42:27;;;;;;;12.53;11.23;;;7.70;62.10;;;;;;5111806;28;20177;-64
2022/03/12 06:44:56;;;;;;;12.30;11.17;;;7.80;63.00;;;;;;5125403;27;20253;-65
2022/03/12 06:47:25;;;;;;;10.97;10.07;;;7.90;64.10;;;;;;5131661;27;20190;-65
2022/03/12 06:49:50;;;;;;;12.07;10.87;;;7.90;64.90;;;;;;5129065;27;20241;-65
2022/03/12 06:52:16;;;;;;;12.63;11.43;;;7.90;65.70;;;;;;5131570;27;20164;-64
2022/03/12 06:54:42;;;;;;;11.63;10.53;;;8.00;66.30;;;;;;5120104;27;20675;-65
2022/03/12 06:57:07;;;;;;;11.87;10.67;;;8.00;67.30;;;;;;5111732;28;20196;-65
2022/03/12 06:59:33;;;;;;;11.37;10.47;;;8.10;67.60;;;;;;5111278;27;20189;-64
2022/03/12 07:01:58;;;;;;;11.03;9.93;;;8.20;68.70;;;;;;5112242;28;20457;-65
2022/03/12 07:04:24;;;;;;;11.07;10.10;;;8.30;68.20;;;;;;5118659;28;20195;-64
2022/03/12 07:06:50;;;;;;;11.27;10.13;;;8.40;69.00;;;;;;5131613;27;20667;-64
2022/03/12 07:09:17;;;;;;;12.37;10.73;;;8.60;68.80;;;;;;5128916;27;20270;-64
2022/03/12 07:11:43;;;;;;;10.67;9.67;;;8.90;68.80;;;;;;5130917;27;20172;-65
2022/03/12 07:14:09;;;;;;;10.97;9.97;;;9.10;68.60;;;;;;5127253;27;20177;-65
2022/03/12 07:16:34;;;;;;;11.57;10.33;;;9.30;69.40;;;;;;5111545;28;20338;-65
2022/03/12 07:19:01;;;;;;;10.57;9.63;;;9.60;70.30;;;;;;5111498;28;20218;-65
2022/03/12 07:21:28;;;;;;;10.57;9.63;;;9.80;70.90;;;;;;5111728;28;20533;-65
2022/03/12 07:23:54;;;;;;;11.10;10.10;;;10.00;68.10;;;;;;5126399;27;20187;-65
2022/03/12 07:26:20;;;;;;;10.77;9.67;;;10.30;68.60;;;;;;5126397;27;20243;-65
2022/03/12 07:28:47;;;;;;;12.40;10.17;;;10.50;67.60;;;;;;5111683;28;20381;-65
2022/03/12 07:31:14;;;;;;;18.13;10.90;;;10.60;67.00;;;;;;5121360;28;20175;-65
2022/03/12 07:33:40;;;;;;;11.13;10.07;;;10.70;66.80;;;;;;5111635;28;20651;-65
2022/03/12 07:36:05;;;;;;;10.67;9.67;;;10.70;67.40;;;;;;5113032;28;20228;-65
2022/03/12 07:38:32;;;;;;;16.17;10.07;;;10.70;67.50;;;;;;5130456;28;20257;-65
2022/03/12 07:40:58;;;;;;;12.23;9.80;;;10.80;68.30;;;;;;5131370;27;20179;-65
2022/03/12 07:43:24;;;;;;;11.37;10.10;;;11.00;67.50;;;;;;5130102;27;20176;-65
2022/03/12 07:45:49;;;;;;;11.10;9.97;;;11.20;68.20;;;;;;5131611;27;20697;-65
2022/03/12 07:48:15;;;;;;;10.67;9.57;;;11.30;66.90;;;;;;5131009;27;20190;-64
2022/03/12 07:50:41;;;;;;;11.93;10.67;;;11.50;66.70;;;;;;5130626;28;20172;-65
2022/03/12 07:53:07;;;;;;;10.43;9.40;;;11.60;66.30;;;;;;5116120;27;20264;-65
2022/03/12 07:55:32;;;;;;;10.70;9.60;;;11.80;67.00;;;;;;5110805;28;20196;-65
2022/03/12 07:57:58;;;;;;;11.13;10.00;;;12.00;66.50;;;;;;5125690;28;20180;-66
2022/03/12 08:00:28;;;;;;;11.10;10.10;;;12.10;65.80;;;;;;5109607;28;20226;-66
2022/03/12 08:02:54;;;;;;;11.57;10.37;;;12.10;66.50;;;;;;5112347;28;20250;-65
2022/03/12 08:05:23;;;;;;;12.07;10.87;;;12.20;67.10;;;;;;5110569;28;20212;-65
2022/03/12 08:07:50;;;;;;;11.47;10.27;;;12.10;68.30;;;;;;5123731;28;20203;-66
2022/03/12 08:10:16;;;;;;;10.90;9.90;;;12.20;69.60;;;;;;5130809;27;20176;-65
2022/03/12 08:12:44;;;;;;;13.57;10.27;;;12.30;69.40;;;;;;5127575;28;20642;-65
2022/03/12 08:15:11;;;;;;;10.80;9.80;;;12.50;71.30;;;;;;5130874;27;20200;-65
2022/03/12 08:17:37;;;;;;;10.83;9.83;;;12.60;71.90;;;;;;5119511;27;20655;-65
2022/03/12 08:20:07;;;;;;;11.70;10.33;;;12.80;73.50;;;;;;5114135;28;20200;-66
2022/03/12 08:22:35;;;;;;;10.50;9.53;;;13.10;74.50;;;;;;5115542;27;20488;-64
2022/03/12 08:25:00;;;;;;;10.10;9.10;;;13.30;75.00;;;;;;5114186;28;20668;-65
2022/03/12 08:27:26;;;;;;;10.90;9.80;;;13.50;76.70;;;;;;5121470;27;20203;-66
2022/03/12 08:29:52;;;;;;;11.37;10.03;;;13.60;77.30;;;;;;5135127;27;20544;-65
2022/03/12 08:32:18;;;;;;;11.30;10.30;;;13.70;78.10;;;;;;5133072;27;20642;-65
2022/03/12 08:34:43;;;;;;;12.17;9.13;;;13.90;78.10;;;;;;5134580;27;20298;-65
2022/03/12 08:37:09;;;;;;;10.57;9.57;;;14.20;79.10;;;;;;5129135;27;20564;-66
2022/03/12 08:39:35;;;;;;;10.03;9.13;;;14.60;79.00;;;;;;5114073;28;20180;-66
2022/03/12 08:42:02;;;;;;;11.23;9.47;;;15.00;79.90;;;;;;5115454;27;20177;-66
2022/03/12 08:44:28;;;;;;;10.83;9.70;;;15.30;80.40;;;;;;5113676;28;20547;-66
2022/03/12 08:46:53;;;;;;;9.40;8.50;;;15.60;81.90;;;;;;5114002;27;20200;-66
2022/03/12 08:49:19;;;;;;;9.70;8.90;;;15.90;83.30;;;;;;5134284;27;20201;-65
2022/03/12 08:51:46;;;;;;;8.03;7.30;;;16.00;85.00;;;;;;5134080;27;20384;-66
2022/03/12 08:54:11;;;;;;;9.73;8.63;;;15.70;88.80;;;;;;5132317;27;20173;-65
2022/03/12 08:56:37;;;;;;;9.97;9.07;;;15.50;91.20;;;;;;5132310;27;20196;-65
2022/03/12 08:59:04;;;;;;;8.90;7.87;;;15.80;92.00;;;;;;5116148;27;20204;-65
2022/03/12 09:01:31;;;;;;;9.00;8.20;;;16.00;91.10;;;;;;5111928;28;20945;-65
2022/03/12 09:03:57;;;;;;;9.37;8.47;;;16.20;90.80;;;;;;5114576;27;20188;-65
2022/03/12 09:06:24;;;;;;;8.43;7.73;;;16.30;90.40;;;;;;5112936;28;20687;-65
2022/03/12 09:08:50;;;;;;;8.53;7.83;;;16.50;91.50;;;;;;5127961;27;20171;-66
2022/03/12 09:11:17;;;;;;;9.30;8.00;;;16.90;90.20;;;;;;5132621;27;20653;-65
2022/03/12 09:13:43;;;;;;;8.83;8.03;;;17.10;89.40;;;;;;5130735;27;20552;-66
2022/03/12 09:16:09;;;;;;;8.60;7.80;;;17.00;90.20;;;;;;5131052;27;20196;-66
2022/03/12 09:18:34;;;;;;;8.37;7.67;;;16.90;90.20;;;;;;5128117;27;20184;-66
2022/03/12 09:21:00;;;;;;;8.23;7.27;;;16.70;91.00;;;;;;5133786;27;20168;-66
2022/03/12 09:23:26;;;;;;;8.20;7.40;;;16.70;91.40;;;;;;5114196;27;20193;-66
2022/03/12 09:25:52;;;;;;;8.17;7.47;;;16.80;90.80;;;;;;5111554;28;20208;-66
2022/03/12 09:28:19;;;;;;;8.03;7.33;;;16.90;91.10;;;;;;5130732;27;20184;-65
2022/03/12 09:30:50;;;;;;;8.80;8.10;;;16.90;90.80;;;;;;5133077;27;20565;-66
2022/03/12 09:33:17;;;;;;;7.90;7.20;;;16.80;90.90;;;;;;5116129;27;20689;-66
2022/03/12 09:35:42;;;;;;;8.37;7.63;;;16.80;91.00;;;;;;5112826;28;20192;-66
2022/03/12 09:38:09;;;;;;;7.60;6.83;;;16.60;91.10;;;;;;5127787;27;20214;-67
2022/03/12 09:40:35;;;;;;;8.07;7.37;;;16.30;91.40;;;;;;5132954;27;20176;-66
2022/03/12 09:43:02;;;;;;;6.93;6.43;;;16.10;92.00;;;;;;5131313;27;20176;-66
2022/03/12 09:45:28;;;;;;;8.10;7.37;;;15.60;92.40;;;;;;5133129;27;20235;-66
2022/03/12 09:47:54;;;;;;;8.03;7.33;;;15.50;93.60;;;;;;5120282;27;20213;-66
2022/03/12 09:50:21;;;;;;;7.30;6.80;;;15.60;93.70;;;;;;5112761;28;20643;-66
2022/03/12 09:52:47;;;;;;;7.70;7.10;;;15.70;93.60;;;;;;5114716;27;20268;-66
2022/03/12 09:55:14;;;;;;;9.47;6.47;;;16.10;93.80;;;;;;5112032;28;20266;-66
2022/03/12 09:57:40;;;;;;;7.20;6.60;;;16.40;92.50;;;;;;5122718;27;20180;-66
2022/03/12 10:00:08;;;;;;;7.30;6.60;;;16.40;92.50;;;;;;5133247;27;20179;-66
2022/03/12 10:02:34;;;;;;;6.40;5.90;;;16.40;92.40;;;;;;5131353;27;20711;-66
2022/03/12 10:04:59;;;;;;;6.67;6.10;;;16.50;92.10;;;;;;5130799;27;20675;-66
2022/03/12 10:07:25;;;;;;;6.77;5.97;;;16.80;91.50;;;;;;5125661;27;20272;-66
2022/03/12 10:09:51;;;;;;;6.57;6.17;;;17.00;91.80;;;;;;5112547;28;20251;-66
2022/03/12 10:12:19;;;;;;;6.47;5.93;;;17.20;90.20;;;;;;5112822;27;20196;-66
2022/03/12 10:14:44;;;;;;;6.60;6.10;;;17.10;90.60;;;;;;5124218;27;20179;-66
2022/03/12 10:17:11;;;;;;;5.93;5.53;;;17.30;90.70;;;;;;5127971;27;20219;-66
2022/03/12 10:19:37;;;;;;;6.93;6.33;;;17.40;90.30;;;;;;5122137;27;20179;-66
2022/03/12 10:22:05;;;;;;;6.40;5.80;;;17.50;90.60;;;;;;5128012;27;20177;-66
2022/03/12 10:24:30;;;;;;;6.53;5.93;;;17.50;90.40;;;;;;5122483;27;20266;-66
2022/03/12 10:26:56;;;;;;;7.97;7.20;;;17.60;90.40;;;;;;5128288;27;20340;-66
2022/03/12 10:29:22;;;;;;;6.33;5.73;;;17.40;90.10;;;;;;5108850;28;20212;-66
2022/03/12 10:31:48;;;;;;;6.93;6.33;;;17.40;90.40;;;;;;5109046;28;20215;-66
2022/03/12 10:34:24;;;;;;;6.70;6.10;;;17.50;90.10;;;;;;5109909;27;20225;-66
2022/03/12 10:36:55;;;;;;;7.23;6.30;;;17.40;90.70;;;;;;5127033;27;20670;-66
2022/03/12 10:39:36;;;;;;;7.10;6.50;;;17.50;90.20;;;;;;5121218;27;20263;-66
2022/03/12 10:42:08;;;;;;;6.57;5.97;;;17.30;90.60;;;;;;5110874;28;20217;-66
2022/03/12 10:44:34;;;;;;;5.90;5.40;;;17.10;91.10;;;;;;5112041;27;20658;-66
2022/03/12 10:47:00;;;;;;;6.33;5.83;;;17.20;90.80;;;;;;5111769;28;20189;-66
2022/03/12 10:49:26;;;;;;;6.83;6.30;;;17.40;90.70;;;;;;5128225;27;20183;-66
2022/03/12 10:51:57;;;;;;;7.57;5.90;;;17.40;90.10;;;;;;5132436;27;20172;-66
2022/03/12 10:54:23;;;;;;;6.43;5.83;;;17.70;90.70;;;;;;5129958;27;20172;-66
2022/03/12 10:56:52;;;;;;;6.10;5.27;;;18.00;90.50;;;;;;5130257;27;20279;-66
2022/03/12 10:59:23;;;;;;;5.90;5.50;;;18.00;87.40;;;;;;5125197;27;20278;-66
2022/03/12 11:01:54;;;;;;;6.73;6.23;;;17.90;89.60;;;;;;5131893;27;20176;-66
2022/03/12 11:04:26;;;;;;;6.53;5.93;;;18.00;87.90;;;;;;5115644;27;20226;-66
2022/03/12 11:06:55;;;;;;;6.73;6.23;;;17.70;88.80;;;;;;5111100;28;20226;-66
2022/03/12 11:09:42;;;;;;;6.50;6.10;;;17.40;90.00;;;;;;5124450;28;20180;-66
2022/03/12 11:12:31;;;;;;;6.87;6.10;;;17.40;90.20;;;;;;5131436;27;20160;-66
2022/03/12 11:15:14;;;;;;;6.03;5.50;;;17.30;90.50;;;;;;5123880;27;20228;-66
2022/03/12 11:17:47;;;;;;;6.37;5.97;;;17.50;90.60;;;;;;5111548;27;20284;-66
2022/03/12 11:20:23;;;;;;;7.10;6.40;;;17.60;90.40;;;;;;5123734;27;20187;-66
2022/03/12 11:23:05;;;;;;;6.07;5.57;;;17.40;89.80;;;;;;5132044;27;20199;-66
2022/03/12 11:25:30;;;;;;;6.80;6.30;;;17.30;90.40;;;;;;5110810;28;20803;-66
2022/03/12 11:28:02;;;;;;;6.80;6.20;;;17.10;90.60;;;;;;5111366;28;20172;-65
2022/03/12 11:30:30;;;;;;;7.93;7.23;;;17.10;91.00;;;;;;5130852;28;20215;-66
2022/03/12 11:33:06;;;;;;;6.53;6.03;;;17.10;90.50;;;;;;5131902;27;20251;-66
2022/03/12 11:35:38;;;;;;;7.73;7.00;;;17.10;90.50;;;;;;5125506;28;20310;-66
2022/03/12 11:38:20;;;;;;;8.67;6.70;;;17.10;90.30;;;;;;5131642;27;20168;-66
2022/03/12 11:40:47;;;;;;;6.73;6.23;;;17.10;90.20;;;;;;5111115;28;20593;-66
2022/03/12 11:43:27;;;;;;;6.60;6.00;;;17.20;90.60;;;;;;5111087;28;20177;-66
2022/03/12 11:45:55;;;;;;;7.20;6.53;;;17.50;89.70;;;;;;5111009;28;20200;-65
2022/03/12 11:48:21;;;;;;;7.03;6.43;;;17.70;89.40;;;;;;5110571;28;20225;-66
2022/03/12 11:50:47;;;;;;;7.00;6.40;;;18.00;88.30;;;;;;5110795;28;20620;-66
2022/03/12 11:53:18;;;;;;;6.60;6.10;;;18.20;86.70;;;;;;5111530;28;20177;-66
2022/03/12 11:55:47;;;;;;;7.77;7.17;;;18.10;86.20;;;;;;5133007;27;20255;-66
2022/03/12 11:58:13;;;;;;;5.87;5.47;;;18.00;87.60;;;;;;5135573;27;20172;-66
2022/03/12 12:00:39;;;;;;;6.57;6.00;;;18.10;85.90;;;;;;5133676;27;20221;-66
2022/03/12 12:03:06;;;;;;;7.53;6.83;;;18.40;85.00;;;;;;5135697;27;20172;-66
2022/03/12 12:05:32;;;;;;;6.07;5.50;;;18.50;86.70;;;;;;5117946;27;20265;-66
2022/03/12 12:07:58;;;;;;;6.53;6.00;;;18.70;84.30;;;;;;5114331;28;20169;-66
2022/03/12 12:10:32;;;;;;;6.80;6.30;;;18.70;83.60;;;;;;5115508;27;20214;-66
2022/03/12 12:12:58;;;;;;;6.50;5.97;;;18.30;83.60;;;;;;5114384;28;20519;-66
2022/03/12 12:15:38;;;;;;;6.73;6.03;;;18.20;85.70;;;;;;5126583;27;20670;-66
2022/03/12 12:18:06;;;;;;;5.93;5.53;;;18.30;85.70;;;;;;5135007;27;20723;-66
2022/03/12 12:20:32;;;;;;;6.60;6.00;;;18.50;85.70;;;;;;5118880;27;20245;-66
2022/03/12 12:23:00;;;;;;;8.70;6.20;;;18.60;83.50;;;;;;5114624;27;20173;-66
2022/03/12 12:25:26;;;;;;;6.73;6.13;;;18.30;83.20;;;;;;5115127;27;20292;-66
2022/03/12 12:27:53;;;;;;;6.00;5.60;;;18.10;83.20;;;;;;5114411;27;20252;-67
2022/03/12 12:30:25;;;;;;;6.53;6.03;;;17.90;83.70;;;;;;5124423;27;20630;-66
2022/03/12 12:32:51;;;;;;;6.77;5.73;;;17.80;83.90;;;;;;5134973;27;20168;-66
2022/03/12 12:35:21;;;;;;;5.87;5.40;;;17.90;84.80;;;;;;5132576;27;20296;-66
2022/03/12 12:37:56;;;;;;;6.20;5.70;;;18.20;83.90;;;;;;5135066;27;20176;-66
2022/03/12 12:40:27;;;;;;;6.13;5.73;;;18.40;82.90;;;;;;5124100;27;20226;-66
2022/03/12 12:42:56;;;;;;;6.13;5.70;;;18.50;82.10;;;;;;5114336;28;20173;-66
2022/03/12 12:45:26;;;;;;;6.17;5.77;;;18.80;81.20;;;;;;5114669;27;20636;-66